createdAt,value
2023-05-01T00:01:30.404Z,6.13
2023-05-01T00:03:57.029Z,5.57
2023-05-01T00:06:23.811Z,5.77
2023-05-01T00:08:50.354Z,5.53
2023-05-01T00:11:16.749Z,5.13
2023-05-01T00:13:43.226Z,5.87
2023-05-01T00:16:11.245Z,5.83
2023-05-01T00:18:38.457Z,5.57
2023-05-01T00:21:05.242Z,5.57
2023-05-01T00:23:31.855Z,5.90
2023-05-01T00:25:58.356Z,5.07
2023-05-01T00:28:24.765Z,4.93
2023-05-01T00:30:51.864Z,4.90
2023-05-01T00:33:18.514Z,5.47
2023-05-01T00:35:45.664Z,5.50
2023-05-01T00:38:12.806Z,5.57
2023-05-01T00:40:46.519Z,4.80
2023-05-01T00:43:13.514Z,5.23
2023-05-01T00:45:43.934Z,5.27
2023-05-01T00:48:10.952Z,5.13
2023-05-01T00:50:38.022Z,5.43
2023-05-01T00:53:05.311Z,4.87
2023-05-01T00:55:33.467Z,4.80
2023-05-01T00:58:01.723Z,4.93
2023-05-01T01:00:29.509Z,5.47
2023-05-01T01:02:56.541Z,5.37
2023-05-01T01:05:27.220Z,5.50
2023-05-01T01:08:05.619Z,5.53
2023-05-01T01:10:52.874Z,5.10
2023-05-01T01:13:32.641Z,5.23
2023-05-01T01:16:09.157Z,5.20
2023-05-01T01:18:47.414Z,6.17
2023-05-01T01:21:35.619Z,5.37
2023-05-01T01:24:11.146Z,5.73
2023-05-01T01:27:03.554Z,5.30
2023-05-01T01:29:51.939Z,5.27
2023-05-01T01:32:33.518Z,5.30
2023-05-01T01:35:04.831Z,5.27
2023-05-01T01:38:09.312Z,5.07
2023-05-01T01:40:40.180Z,5.77
2023-05-01T01:43:10.483Z,5.87
2023-05-01T01:45:41.215Z,5.77
2023-05-01T01:48:13.032Z,5.57
2023-05-01T01:50:42.305Z,5.57
2023-05-01T01:53:13.037Z,5.70
2023-05-01T01:55:43.298Z,5.77
2023-05-01T01:58:13.211Z,5.70
2023-05-01T02:00:42.094Z,6.20
2023-05-01T02:03:10.435Z,6.27
2023-05-01T02:05:40.407Z,5.60
2023-05-01T02:08:08.443Z,5.90
2023-05-01T02:10:36.990Z,6.10
2023-05-01T02:13:04.517Z,5.73
2023-05-01T02:15:32.630Z,6.07
2023-05-01T02:18:05.470Z,6.37
2023-05-01T02:20:33.419Z,6.47
2023-05-01T02:23:00.471Z,6.03
2023-05-01T02:25:30.454Z,6.50
2023-05-01T02:28:01.704Z,6.47
2023-05-01T02:30:28.442Z,5.80
2023-05-01T02:32:56.235Z,5.50
2023-05-01T02:35:23.236Z,5.57
2023-05-01T02:37:49.890Z,5.87
2023-05-01T02:40:16.778Z,6.03
2023-05-01T02:42:44.858Z,5.83
2023-05-01T02:45:19.542Z,5.57
2023-05-01T02:47:50.489Z,5.43
2023-05-01T02:50:17.495Z,5.63
2023-05-01T02:52:45.292Z,5.90
2023-05-01T02:55:32.878Z,5.23
2023-05-01T02:57:59.900Z,5.80
2023-05-01T03:00:27.709Z,5.77
2023-05-01T03:02:54.839Z,5.13
2023-05-01T03:05:21.352Z,5.97
2023-05-01T03:07:48.351Z,5.73
2023-05-01T03:10:14.927Z,4.97
2023-05-01T03:12:41.958Z,5.83
2023-05-01T03:15:09.325Z,5.47
2023-05-01T03:17:35.832Z,5.60
2023-05-01T03:20:02.394Z,5.73
2023-05-01T03:22:29.755Z,5.10
2023-05-01T03:24:56.170Z,5.23
2023-05-01T03:27:22.609Z,6.10
2023-05-01T03:29:49.763Z,5.57
2023-05-01T03:32:17.710Z,5.70
2023-05-01T03:34:45.648Z,6.07
2023-05-01T03:37:12.803Z,5.87
2023-05-01T03:39:39.569Z,5.30
2023-05-01T03:42:24.756Z,6.10
2023-05-01T03:44:57.296Z,6.70
2023-05-01T03:47:24.464Z,6.17
2023-05-01T03:49:50.914Z,6.37
2023-05-01T03:52:17.390Z,5.70
2023-05-01T03:54:44.612Z,5.87
2023-05-01T03:57:21.177Z,5.87
2023-05-01T03:59:47.957Z,6.13
2023-05-01T04:02:14.631Z,6.57
2023-05-01T04:04:41.997Z,5.90
2023-05-01T04:07:08.496Z,6.03
2023-05-01T04:09:35.572Z,5.60
2023-05-01T04:12:05.778Z,5.80
2023-05-01T04:14:32.340Z,6.33
2023-05-01T04:16:59.335Z,6.13
2023-05-01T04:19:27.226Z,6.10
2023-05-01T04:21:57.832Z,5.97
2023-05-01T04:24:25.592Z,5.73
2023-05-01T04:26:53.569Z,6.40
2023-05-01T04:29:20.201Z,5.60
2023-05-01T04:31:46.680Z,6.40
2023-05-01T04:34:13.163Z,6.57
2023-05-01T04:36:39.858Z,6.47
2023-05-01T04:39:06.710Z,6.57
2023-05-01T04:41:33.402Z,6.77
2023-05-01T04:44:00.173Z,7.10
2023-05-01T04:46:26.845Z,7.53
2023-05-01T04:48:53.804Z,7.10
2023-05-01T04:51:20.528Z,7.53
2023-05-01T04:53:47.324Z,6.50
2023-05-01T04:56:22.847Z,6.47
2023-05-01T04:58:52.799Z,6.60
2023-05-01T05:01:24.730Z,6.83
2023-05-01T05:03:52.238Z,7.07
2023-05-01T05:06:19.274Z,6.50
2023-05-01T05:08:45.702Z,5.93
2023-05-01T05:11:12.598Z,6.23
2023-05-01T05:13:48.757Z,6.17
2023-05-01T05:16:15.764Z,6.70
2023-05-01T05:18:42.558Z,6.57
2023-05-01T05:21:10.380Z,6.93
2023-05-01T05:23:38.292Z,6.63
2023-05-01T05:26:05.891Z,7.17
2023-05-01T05:28:32.427Z,6.10
2023-05-01T05:30:58.995Z,6.43
2023-05-01T05:33:26.125Z,7.03
2023-05-01T05:35:53.067Z,7.63
2023-05-01T05:38:23.906Z,7.83
2023-05-01T05:40:54.588Z,7.23
2023-05-01T05:43:21.961Z,5.97
2023-05-01T05:45:48.921Z,5.97
2023-05-01T05:48:15.502Z,5.87
2023-05-01T05:50:42.057Z,5.90
2023-05-01T05:53:09.917Z,5.83
2023-05-01T05:55:37.278Z,5.50
2023-05-01T05:58:06.665Z,5.93
2023-05-01T06:00:33.531Z,5.93
2023-05-01T06:03:04.203Z,5.80
2023-05-01T06:05:32.416Z,6.30
2023-05-01T06:07:59.024Z,5.37
2023-05-01T06:10:25.479Z,5.60
2023-05-01T06:13:02.866Z,4.80
2023-05-01T06:15:38.737Z,5.50
2023-05-01T06:18:06.110Z,4.80
2023-05-01T06:20:32.648Z,6.10
2023-05-01T06:22:59.229Z,5.73
2023-05-01T06:25:32.626Z,5.83
2023-05-01T06:27:59.281Z,4.97
2023-05-01T06:30:25.973Z,4.93
2023-05-01T06:32:52.934Z,4.63
2023-05-01T06:35:20.933Z,4.97
2023-05-01T06:37:47.491Z,5.03
2023-05-01T06:40:14.169Z,4.83
2023-05-01T06:42:42.150Z,5.13
2023-05-01T06:45:09.148Z,4.67
2023-05-01T06:47:35.824Z,4.37
2023-05-01T06:50:06.140Z,4.40
2023-05-01T06:52:33.309Z,4.83
2023-05-01T06:54:59.760Z,4.70
2023-05-01T06:57:26.314Z,4.60
2023-05-01T06:59:54.152Z,4.63
2023-05-01T07:02:21.077Z,4.17
2023-05-01T07:04:47.660Z,4.20
2023-05-01T07:07:14.169Z,4.60
2023-05-01T07:09:41.497Z,4.37
2023-05-01T07:12:08.609Z,4.33
2023-05-01T07:14:36.033Z,4.50
2023-05-01T07:17:03.456Z,4.10
2023-05-01T07:19:29.972Z,4.33
2023-05-01T07:21:56.367Z,3.53
2023-05-01T07:24:22.797Z,4.20
2023-05-01T07:26:49.224Z,4.17
2023-05-01T07:29:16.489Z,4.20
2023-05-01T07:31:43.502Z,4.00
2023-05-01T07:34:10.227Z,4.27
2023-05-01T07:36:36.754Z,4.30
2023-05-01T07:39:04.085Z,4.03
2023-05-01T07:41:31.416Z,4.20
2023-05-01T07:44:01.068Z,4.23
2023-05-01T07:46:27.779Z,4.07
2023-05-01T07:48:54.468Z,3.97
2023-05-01T07:51:21.104Z,4.20
2023-05-01T07:53:48.612Z,4.13
2023-05-01T07:56:15.204Z,4.10
2023-05-01T07:58:42.569Z,3.97
2023-05-01T08:01:09.145Z,4.50
2023-05-01T08:03:36.222Z,4.83
2023-05-01T08:06:02.779Z,4.47
2023-05-01T08:08:29.330Z,3.73
2023-05-01T08:10:56.183Z,4.63
2023-05-01T08:13:22.784Z,4.77
2023-05-01T08:15:49.388Z,4.10
2023-05-01T08:18:20.212Z,4.10
2023-05-01T08:20:50.107Z,4.73
2023-05-01T08:23:17.488Z,4.57
2023-05-01T08:25:47.371Z,4.60
2023-05-01T08:28:14.794Z,4.67
2023-05-01T08:30:41.243Z,4.37
2023-05-01T08:33:07.918Z,4.53
2023-05-01T08:35:34.433Z,4.63
2023-05-01T08:38:01.603Z,4.57
2023-05-01T08:40:33.214Z,4.83
2023-05-01T08:43:00.936Z,4.87
2023-05-01T08:45:27.689Z,5.60
2023-05-01T08:47:55.298Z,4.93
2023-05-01T08:50:23.324Z,4.87
2023-05-01T08:52:52.777Z,4.97
2023-05-01T08:55:20.457Z,5.20
2023-05-01T08:57:48.540Z,4.93
2023-05-01T09:00:19.457Z,5.10
2023-05-01T09:02:48.371Z,5.20
2023-05-01T09:05:19.640Z,4.60
2023-05-01T09:07:46.981Z,5.27
2023-05-01T09:10:17.150Z,5.07
2023-05-01T09:12:46.847Z,4.90
2023-05-01T09:15:14.067Z,4.97
2023-05-01T09:17:42.578Z,5.20
2023-05-01T09:20:10.472Z,4.53
2023-05-01T09:22:37.370Z,5.03
2023-05-01T09:25:04.312Z,5.00
2023-05-01T09:27:35.879Z,4.67
2023-05-01T09:30:03.375Z,4.60
2023-05-01T09:32:29.976Z,5.13
2023-05-01T09:35:12.441Z,4.70
2023-05-01T09:37:39.285Z,4.67
2023-05-01T09:40:06.477Z,4.30
2023-05-01T09:42:34.536Z,4.63
2023-05-01T09:45:03.571Z,4.90
2023-05-01T09:47:30.572Z,4.40
2023-05-01T09:49:59.671Z,4.60
2023-05-01T09:52:28.069Z,4.70
2023-05-01T09:55:16.519Z,4.53
2023-05-01T09:57:45.221Z,4.50
2023-05-01T10:00:15.419Z,4.50
2023-05-01T10:02:47.657Z,4.57
2023-05-01T10:05:15.470Z,4.57
2023-05-01T10:08:14.808Z,4.10
2023-05-01T10:10:43.648Z,4.33
2023-05-01T10:13:15.065Z,4.87
2023-05-01T10:15:41.699Z,4.97
2023-05-01T10:18:11.462Z,3.90
2023-05-01T10:20:38.038Z,4.43
2023-05-01T10:23:04.565Z,3.63
2023-05-01T10:25:32.321Z,3.97
2023-05-01T10:27:59.441Z,3.87
2023-05-01T10:30:26.260Z,3.80
2023-05-01T10:32:53.070Z,3.83
2023-05-01T10:35:25.818Z,4.10
2023-05-01T10:38:00.881Z,3.93
2023-05-01T10:40:39.449Z,4.40
2023-05-01T10:43:31.349Z,3.80
2023-05-01T10:46:07.359Z,3.43
2023-05-01T10:48:40.246Z,3.87
2023-05-01T10:51:13.183Z,3.23
2023-05-01T10:53:41.163Z,3.97
2023-05-01T10:56:26.946Z,3.43
2023-05-01T10:58:53.300Z,3.70
2023-05-01T11:01:37.639Z,3.60
2023-05-01T11:04:04.976Z,3.40
2023-05-01T11:06:32.950Z,3.37
2023-05-01T11:09:00.542Z,3.50
2023-05-01T11:11:27.964Z,3.40
2023-05-01T11:14:06.530Z,3.70
2023-05-01T11:16:39.493Z,3.27
2023-05-01T11:19:33.124Z,3.33
2023-05-01T11:22:00.512Z,2.80
2023-05-01T11:24:33.254Z,3.10
2023-05-01T11:27:02.615Z,2.90
2023-05-01T11:29:32.825Z,3.10
2023-05-01T11:32:00.697Z,2.67
2023-05-01T11:34:27.580Z,2.40
2023-05-01T11:36:54.284Z,2.80
2023-05-01T11:39:22.040Z,2.40
2023-05-01T11:41:48.612Z,2.60
2023-05-01T11:44:16.764Z,2.40
2023-05-01T11:46:43.277Z,2.53
2023-05-01T11:49:11.026Z,2.47
2023-05-01T11:51:37.645Z,1.93
2023-05-01T11:54:06.594Z,2.00
2023-05-01T11:56:34.221Z,1.60
2023-05-01T11:59:15.512Z,1.57
2023-05-01T12:01:44.600Z,1.70
2023-05-01T12:04:12.960Z,1.40
2023-05-01T12:06:47.030Z,1.40
2023-05-01T12:09:20.194Z,1.20
2023-05-01T12:11:52.309Z,1.60
2023-05-01T12:14:21.473Z,1.77
2023-05-01T12:16:48.552Z,1.90
2023-05-01T12:19:15.922Z,1.60
2023-05-01T12:21:42.991Z,1.67
2023-05-01T12:24:16.940Z,1.43
2023-05-01T12:26:45.477Z,1.10
2023-05-01T12:29:12.294Z,1.20
2023-05-01T12:31:50.012Z,1.30
2023-05-01T12:34:16.548Z,1.50
2023-05-01T12:36:54.413Z,1.50
2023-05-01T12:39:21.991Z,1.50
2023-05-01T12:41:49.516Z,1.40
2023-05-01T12:44:27.343Z,1.67
2023-05-01T12:46:59.516Z,2.00
2023-05-01T12:49:27.483Z,1.67
2023-05-01T12:51:55.923Z,1.40
2023-05-01T12:54:30.330Z,1.73
2023-05-01T12:57:06.725Z,2.00
2023-05-01T12:59:33.220Z,2.00
2023-05-01T13:02:05.413Z,1.90
2023-05-01T13:04:32.351Z,1.90
2023-05-01T13:06:59.726Z,1.73
2023-05-01T13:09:30.670Z,2.00
2023-05-01T13:12:05.069Z,1.97
2023-05-01T13:14:40.306Z,1.67
2023-05-01T13:17:10.540Z,2.00
2023-05-01T13:19:37.806Z,1.90
2023-05-01T13:22:05.392Z,1.70
2023-05-01T13:24:39.503Z,2.00
2023-05-01T13:27:08.602Z,1.70
2023-05-01T13:29:35.455Z,1.70
2023-05-01T13:32:06.534Z,1.80
2023-05-01T13:34:34.317Z,1.60
2023-05-01T13:37:01.632Z,1.43
2023-05-01T13:39:28.770Z,1.40
2023-05-01T13:41:55.434Z,1.63
2023-05-01T13:44:22.303Z,1.50
2023-05-01T13:46:49.797Z,1.80
2023-05-01T13:49:20.604Z,1.93
2023-05-01T13:51:48.696Z,1.60
2023-05-01T13:54:16.557Z,1.67
2023-05-01T13:56:43.071Z,1.83
2023-05-01T13:59:10.597Z,1.80
2023-05-01T14:01:45.977Z,2.10
2023-05-01T14:04:21.188Z,1.80
2023-05-01T14:06:48.591Z,1.67
2023-05-01T14:09:18.346Z,2.10
2023-05-01T14:11:46.829Z,1.77
2023-05-01T14:14:17.786Z,1.67
2023-05-01T14:16:48.933Z,1.60
2023-05-01T14:19:18.033Z,1.73
2023-05-01T14:21:44.467Z,1.73
2023-05-01T14:24:11.289Z,1.30
2023-05-01T14:26:43.487Z,1.70
2023-05-01T14:29:23.744Z,1.70
2023-05-01T14:31:51.492Z,1.57
2023-05-01T14:34:19.082Z,1.60
2023-05-01T14:36:45.464Z,2.00
2023-05-01T14:39:12.411Z,2.00
2023-05-01T14:41:42.609Z,1.60
2023-05-01T14:44:17.786Z,1.63
2023-05-01T14:46:47.400Z,1.80
2023-05-01T14:49:22.389Z,1.93
2023-05-01T14:51:49.432Z,1.80
2023-05-01T14:54:16.301Z,2.00
2023-05-01T14:56:43.804Z,1.77
2023-05-01T14:59:10.785Z,1.80
2023-05-01T15:01:37.238Z,1.60
2023-05-01T15:04:06.439Z,1.80
2023-05-01T15:06:34.158Z,1.80
2023-05-01T15:09:00.912Z,2.00
2023-05-01T15:11:30.410Z,1.63
2023-05-01T15:13:56.837Z,1.90
2023-05-01T15:16:23.592Z,1.93
2023-05-01T15:18:50.146Z,1.57
2023-05-01T15:21:16.575Z,1.73
2023-05-01T15:23:45.096Z,1.40
2023-05-01T15:26:12.042Z,1.70
2023-05-01T15:28:38.749Z,1.70
2023-05-01T15:31:05.882Z,1.80
2023-05-01T15:33:32.338Z,1.80
2023-05-01T15:35:58.797Z,1.73
2023-05-01T15:38:26.039Z,1.60
2023-05-01T15:40:53.928Z,1.60
2023-05-01T15:43:22.263Z,1.73
2023-05-01T15:45:49.485Z,1.53
2023-05-01T15:48:16.053Z,1.70
2023-05-01T15:50:42.515Z,1.60
2023-05-01T15:53:09.025Z,1.50
2023-05-01T15:55:36.783Z,1.70
2023-05-01T15:58:03.514Z,1.73
2023-05-01T16:00:29.889Z,1.70
2023-05-01T16:02:56.367Z,1.70
2023-05-01T16:05:22.916Z,1.73
2023-05-01T16:07:54.252Z,1.70
2023-05-01T16:10:20.939Z,1.83
2023-05-01T16:12:47.387Z,2.07
2023-05-01T16:15:14.773Z,1.80
2023-05-01T16:17:43.604Z,2.10
2023-05-01T16:20:12.061Z,1.60
2023-05-01T16:22:43.239Z,1.90
2023-05-01T16:25:10.851Z,2.30
2023-05-01T16:27:41.273Z,2.07
2023-05-01T16:30:09.080Z,2.30
2023-05-01T16:32:35.925Z,2.03
2023-05-01T16:35:03.837Z,1.90
2023-05-01T16:37:30.294Z,1.50
2023-05-01T16:40:00.980Z,1.90
2023-05-01T16:42:27.799Z,1.83
2023-05-01T16:44:54.373Z,1.80
2023-05-01T16:47:20.900Z,2.13
2023-05-01T16:49:47.335Z,1.93
2023-05-01T16:52:15.515Z,1.80
2023-05-01T16:54:42.155Z,2.00
2023-05-01T16:57:08.889Z,2.00
2023-05-01T16:59:35.365Z,2.00
2023-05-01T17:02:05.745Z,2.07
2023-05-01T17:04:32.497Z,1.90
2023-05-01T17:06:59.090Z,1.60
2023-05-01T17:09:26.401Z,2.20
2023-05-01T17:11:56.485Z,2.00
2023-05-01T17:14:23.095Z,1.90
2023-05-01T17:16:50.508Z,1.90
2023-05-01T17:19:17.323Z,2.00
2023-05-01T17:21:43.785Z,1.80
2023-05-01T17:24:10.274Z,2.00
2023-05-01T17:26:36.945Z,2.60
2023-05-01T17:29:03.586Z,2.30
2023-05-01T17:31:30.096Z,1.90
2023-05-01T17:33:56.513Z,2.30
2023-05-01T17:36:23.791Z,1.93
2023-05-01T17:38:50.389Z,1.87
2023-05-01T17:41:17.094Z,2.17
2023-05-01T17:43:44.729Z,1.83
2023-05-01T17:46:11.648Z,2.03
2023-05-01T17:48:38.176Z,2.33
2023-05-01T17:51:04.607Z,2.40
2023-05-01T17:53:31.149Z,2.30
2023-05-01T17:55:58.409Z,2.30
2023-05-01T17:58:24.856Z,2.20
2023-05-01T18:00:51.775Z,2.27
2023-05-01T18:03:18.437Z,2.70
2023-05-01T18:05:44.925Z,1.97
2023-05-01T18:08:11.514Z,2.40
2023-05-01T18:10:38.086Z,2.10
2023-05-01T18:13:08.124Z,2.17
2023-05-01T18:15:34.599Z,2.00
2023-05-01T18:18:01.046Z,1.80
2023-05-01T18:20:28.747Z,2.23
2023-05-01T18:22:55.331Z,2.43
2023-05-01T18:25:22.355Z,1.90
2023-05-01T18:27:49.059Z,1.93
2023-05-01T18:30:15.498Z,1.87
2023-05-01T18:32:48.271Z,2.20
2023-05-01T18:35:16.639Z,2.20
2023-05-01T18:37:43.972Z,2.10
2023-05-01T18:40:11.364Z,2.30
2023-05-01T18:42:39.471Z,2.33
2023-05-01T18:45:07.203Z,2.13
2023-05-01T18:47:33.661Z,2.30
2023-05-01T18:50:00.203Z,2.20
2023-05-01T18:52:29.377Z,2.43
2023-05-01T18:54:55.822Z,2.33
2023-05-01T18:57:22.868Z,2.30
2023-05-01T18:59:49.286Z,2.20
2023-05-01T19:02:15.668Z,2.60
2023-05-01T19:04:56.066Z,2.40
2023-05-01T19:07:23.662Z,2.70
2023-05-01T19:09:50.208Z,3.07
2023-05-01T19:12:16.607Z,2.70
2023-05-01T19:14:43.227Z,2.87
2023-05-01T19:17:09.825Z,2.70
2023-05-01T19:19:36.525Z,3.00
2023-05-01T19:22:03.046Z,3.57
2023-05-01T19:24:29.462Z,3.20
2023-05-01T19:26:55.862Z,3.70
2023-05-01T19:29:22.401Z,3.60
2023-05-01T19:31:48.905Z,3.73
2023-05-01T19:34:15.365Z,3.60
2023-05-01T19:36:41.814Z,3.70
2023-05-01T19:39:08.368Z,3.73
2023-05-01T19:41:34.878Z,3.97
2023-05-01T19:44:01.447Z,3.97
2023-05-01T19:46:28.042Z,4.07
2023-05-01T19:48:54.525Z,3.40
2023-05-01T19:51:21.260Z,4.27
2023-05-01T19:53:47.687Z,4.17
2023-05-01T19:56:14.080Z,4.13
2023-05-01T19:58:40.867Z,3.90
2023-05-01T20:01:09.273Z,4.23
2023-05-01T20:03:36.015Z,3.57
2023-05-01T20:06:03.244Z,3.80
2023-05-01T20:08:29.717Z,4.07
2023-05-01T20:10:56.721Z,3.67
2023-05-01T20:13:23.333Z,3.67
2023-05-01T20:15:51.102Z,3.83
2023-05-01T20:18:17.970Z,3.43
2023-05-01T20:20:44.432Z,3.33
2023-05-01T20:23:16.204Z,3.50
2023-05-01T20:25:43.377Z,3.60
2023-05-01T20:28:11.055Z,3.27
2023-05-01T20:30:42.855Z,3.23
2023-05-01T20:33:09.428Z,3.27
2023-05-01T20:35:36.491Z,3.27
2023-05-01T20:38:04.401Z,3.37
2023-05-01T20:40:31.881Z,3.50
2023-05-01T20:43:01.947Z,3.57
2023-05-01T20:45:31.598Z,3.40
2023-05-01T20:47:58.581Z,3.27
2023-05-01T20:50:29.217Z,2.57
2023-05-01T20:52:56.181Z,2.43
2023-05-01T20:55:23.678Z,2.53
2023-05-01T20:57:50.354Z,3.00
2023-05-01T21:00:17.223Z,3.30
2023-05-01T21:02:43.865Z,3.00
2023-05-01T21:05:10.990Z,2.90
2023-05-01T21:07:41.034Z,3.23
2023-05-01T21:10:10.093Z,2.83
2023-05-01T21:12:36.970Z,3.20
2023-05-01T21:15:04.489Z,3.03
2023-05-01T21:17:32.968Z,2.73
2023-05-01T21:19:59.739Z,2.70
2023-05-01T21:22:26.993Z,2.60
2023-05-01T21:24:55.757Z,2.60
2023-05-01T21:27:24.150Z,2.77
2023-05-01T21:30:00.946Z,2.13
2023-05-01T21:32:33.282Z,2.10
2023-05-01T21:35:00.637Z,2.80
2023-05-01T21:37:29.099Z,2.30
2023-05-01T21:39:58.944Z,2.47
2023-05-01T21:42:39.240Z,2.40
2023-05-01T21:45:10.984Z,2.43
2023-05-01T21:47:39.540Z,2.43
2023-05-01T21:50:07.670Z,2.40
2023-05-01T21:52:37.189Z,2.60
2023-05-01T21:55:09.212Z,2.60
2023-05-01T21:57:36.927Z,2.57
2023-05-01T22:00:05.012Z,2.50
2023-05-01T22:02:47.898Z,2.50
2023-05-01T22:05:17.909Z,2.60
2023-05-01T22:07:46.243Z,2.40
2023-05-01T22:10:40.542Z,2.53
2023-05-01T22:13:07.124Z,2.50
2023-05-01T22:15:38.627Z,2.63
2023-05-01T22:18:05.131Z,3.00
2023-05-01T22:20:32.253Z,2.80
2023-05-01T22:22:58.706Z,3.10
2023-05-01T22:25:25.478Z,3.03
2023-05-01T22:27:52.277Z,2.90
2023-05-01T22:30:18.648Z,3.13
2023-05-01T22:32:45.056Z,2.90
2023-05-01T22:35:11.813Z,2.93
2023-05-01T22:37:38.357Z,2.90
2023-05-01T22:40:05.552Z,2.97
2023-05-01T22:42:32.078Z,3.20
2023-05-01T22:44:58.451Z,3.30
2023-05-01T22:47:24.903Z,3.57
2023-05-01T22:49:51.615Z,3.63
2023-05-01T22:52:18.190Z,3.20
2023-05-01T22:54:44.610Z,3.40
2023-05-01T22:57:11.269Z,3.30
2023-05-01T22:59:39.478Z,3.23
2023-05-01T23:02:06.036Z,3.00
2023-05-01T23:04:32.527Z,2.90
2023-05-01T23:06:59.106Z,3.10
2023-05-01T23:09:26.325Z,2.87
2023-05-01T23:11:52.745Z,2.77
2023-05-01T23:14:19.696Z,2.83
2023-05-01T23:16:46.100Z,2.80
2023-05-01T23:19:21.792Z,3.40
2023-05-01T23:21:49.758Z,3.00
2023-05-01T23:24:18.225Z,3.43
2023-05-01T23:26:44.883Z,3.40
2023-05-01T23:29:13.410Z,3.00
2023-05-01T23:31:45.288Z,3.50
2023-05-01T23:34:15.366Z,2.90
2023-05-01T23:36:44.396Z,2.97
2023-05-01T23:39:11.183Z,3.23
2023-05-01T23:41:38.185Z,3.10
2023-05-01T23:44:04.843Z,3.47
2023-05-01T23:46:31.431Z,3.33
2023-05-01T23:48:57.866Z,3.00
2023-05-01T23:51:24.357Z,3.40
2023-05-01T23:53:50.871Z,3.53
2023-05-01T23:56:17.376Z,3.00
2023-05-01T23:58:43.757Z,3.50
